KISW

Alexander Field South Wood County Airport

Wisconsin Rapids, Wisconsin, USA
METAR KISW 191454Z AUTO VRB03KT 10SM CLR 23/17 A3001 RMK AO2 SLP159 T02280172 58003 TSNO
Observed Flight Rules
Aug-19 @ 14:54 UTC (45 minutes ago) Visual Flight Rules
Wind Visibility Clouds
Variable at 3 knots 10 miles
  • Clear skies
Temperatures Readings
Current 23°C / 73°F
Dewpoint 17°C / 63°F
Humidity 69%
Altimeter 30.01" Hg
Pressure 1015.9 hPa
Elevation 307
METAR KISW 191454Z AUTO VRB03KT 10SM CLR 23/17 A3001 RMK AO2 SLP159 T02280172 58003 TSNO
Observed Flight Rules
Aug-19 @ 14:54 UTC
(45 minutes ago)
VFR
Wind Visibility
Variable at 3 knots 10 miles
Clouds
  • Clear skies
Temperature Dewpoint
23°C / 73°F 17°C / 63°F
Humidity Altimeter Pressure
69% 30.01" Hg 1015.9 hPa